EZY3488 LFLL-LFBO
Flight info
| Callsign | EZY3488 |
|---|---|
| Flight time | 0h 51m |
| Altitude | 29000 |
| Route | REPSI DCT LERGA DCT MINSO DCT NARAK |
| Aircraft | A319/M-SDE3FGHIRWY/LB1 |
Departure
| Time | 2026-04-29 09:43 |
|---|---|
| Airport | Lyon Saint-Exupéry Airport (LFLL) |
Arrival
| Time | 2026-04-29 10:34 |
|---|---|
| Airport | Toulouse-Blagnac Airport (LFBO) |
| Time | Latitude | Longitude | Altitude | Speed | Heading |
|---|---|---|---|---|---|
| 2026-04-29 09:24 | 45.71583 | 5.08321 | 803 ft | 0 kts | 195° |
| 2026-04-29 09:35 | 45.71599 | 5.08327 | 803 ft | 3 kts | 195° |
| 2026-04-29 09:35 | 45.71621 | 5.08335 | 803 ft | 3 kts | 195° |
| 2026-04-29 09:36 | 45.71643 | 5.08344 | 804 ft | 3 kts | 194° |
| 2026-04-29 09:36 | 45.71664 | 5.08338 | 803 ft | 3 kts | 147° |
| 2026-04-29 09:36 | 45.71673 | 5.08323 | 803 ft | 0 kts | 117° |
| 2026-04-29 09:38 | 45.71671 | 5.08334 | 803 ft | 2 kts | 94° |
| 2026-04-29 09:39 | 45.71675 | 5.08377 | 803 ft | 7 kts | 78° |
| 2026-04-29 09:39 | 45.71679 | 5.08455 | 803 ft | 10 kts | 112° |
| 2026-04-29 09:39 | 45.71621 | 5.08501 | 804 ft | 12 kts | 174° |
| 2026-04-29 09:39 | 45.71537 | 5.08511 | 806 ft | 14 kts | 175° |
| 2026-04-29 09:40 | 45.71443 | 5.08521 | 808 ft | 16 kts | 176° |
| 2026-04-29 09:40 | 45.71337 | 5.08532 | 810 ft | 18 kts | 175° |
| 2026-04-29 09:40 | 45.71221 | 5.08546 | 812 ft | 20 kts | 172° |
| 2026-04-29 09:40 | 45.71129 | 5.08641 | 814 ft | 20 kts | 109° |
| 2026-04-29 09:41 | 45.71093 | 5.08791 | 816 ft | 17 kts | 103° |
| 2026-04-29 09:41 | 45.71084 | 5.08932 | 818 ft | 15 kts | 74° |
| 2026-04-29 09:41 | 45.71140 | 5.09014 | 820 ft | 11 kts | 14° |
| 2026-04-29 09:41 | 45.71192 | 5.09013 | 819 ft | 8 kts | 356° |
| 2026-04-29 09:42 | 45.71257 | 5.09007 | 818 ft | 20 kts | 355° |
| 2026-04-29 09:42 | 45.71587 | 5.08961 | 814 ft | 91 kts | 354° |
| 2026-04-29 09:42 | 45.72325 | 5.08880 | 818 ft | 148 kts | 354° |
| 2026-04-29 09:42 | 45.73248 | 5.08809 | 1270 ft | 158 kts | 356° |
| 2026-04-29 09:43 | 45.74189 | 5.08725 | 1929 ft | 159 kts | 355° |
| 2026-04-29 09:43 | 45.75147 | 5.08601 | 2622 ft | 161 kts | 355° |
| 2026-04-29 09:43 | 45.76139 | 5.08471 | 3187 ft | 171 kts | 358° |
| 2026-04-29 09:43 | 45.77200 | 5.08363 | 3656 ft | 185 kts | 358° |
| 2026-04-29 09:44 | 45.78353 | 5.08242 | 4135 ft | 199 kts | 358° |
| 2026-04-29 09:44 | 45.79550 | 5.08106 | 4604 ft | 213 kts | 357° |
| 2026-04-29 09:44 | 45.80895 | 5.07944 | 5022 ft | 232 kts | 356° |
| 2026-04-29 09:44 | 45.82330 | 5.07761 | 5537 ft | 248 kts | 356° |
| 2026-04-29 09:45 | 45.83839 | 5.07566 | 6064 ft | 263 kts | 356° |
| 2026-04-29 09:45 | 45.85452 | 5.07354 | 6648 ft | 276 kts | 355° |
| 2026-04-29 09:45 | 45.87094 | 5.06878 | 7389 ft | 283 kts | 338° |
| 2026-04-29 09:45 | 45.88517 | 5.05561 | 8189 ft | 287 kts | 315° |
| 2026-04-29 09:46 | 45.89499 | 5.03578 | 8935 ft | 290 kts | 292° |
| 2026-04-29 09:46 | 45.89905 | 5.01215 | 9686 ft | 292 kts | 271° |
| 2026-04-29 09:46 | 45.89674 | 4.98762 | 10479 ft | 293 kts | 249° |
| 2026-04-29 09:46 | 45.88863 | 4.96470 | 11010 ft | 302 kts | 237° |
| 2026-04-29 09:47 | 45.87854 | 4.94218 | 11488 ft | 317 kts | 236° |
| 2026-04-29 09:47 | 45.86814 | 4.91932 | 12022 ft | 328 kts | 236° |
| 2026-04-29 09:47 | 45.85779 | 4.89595 | 12727 ft | 332 kts | 237° |
| 2026-04-29 09:47 | 45.84743 | 4.87195 | 13466 ft | 334 kts | 238° |
| 2026-04-29 09:48 | 45.83702 | 4.84748 | 14153 ft | 338 kts | 238° |
| 2026-04-29 09:48 | 45.82661 | 4.82280 | 14804 ft | 341 kts | 238° |
| 2026-04-29 09:48 | 45.81615 | 4.79777 | 15494 ft | 345 kts | 238° |
| 2026-04-29 09:48 | 45.80554 | 4.77222 | 16107 ft | 348 kts | 239° |
| 2026-04-29 09:49 | 45.79479 | 4.74641 | 16712 ft | 351 kts | 238° |
| 2026-04-29 09:49 | 45.78210 | 4.72175 | 17388 ft | 354 kts | 228° |
| 2026-04-29 09:49 | 45.76658 | 4.70066 | 17981 ft | 357 kts | 218° |
| 2026-04-29 09:49 | 45.74886 | 4.68328 | 18588 ft | 360 kts | 212° |
| 2026-04-29 09:50 | 45.73058 | 4.66728 | 19133 ft | 363 kts | 213° |
| 2026-04-29 09:50 | 45.71287 | 4.64849 | 19688 ft | 366 kts | 221° |
| 2026-04-29 09:50 | 45.69745 | 4.62655 | 20264 ft | 369 kts | 230° |
| 2026-04-29 09:50 | 45.68393 | 4.60169 | 20825 ft | 371 kts | 234° |
| 2026-04-29 09:51 | 45.67115 | 4.57595 | 21372 ft | 374 kts | 236° |
| 2026-04-29 09:51 | 45.65821 | 4.54934 | 21934 ft | 376 kts | 236° |
| 2026-04-29 09:51 | 45.64512 | 4.52249 | 22466 ft | 379 kts | 236° |
| 2026-04-29 09:51 | 45.63212 | 4.49599 | 22978 ft | 381 kts | 236° |
| 2026-04-29 09:52 | 45.61876 | 4.46888 | 23500 ft | 384 kts | 236° |
| 2026-04-29 09:52 | 45.60532 | 4.44174 | 24013 ft | 387 kts | 236° |
| 2026-04-29 09:52 | 45.59191 | 4.41472 | 24497 ft | 389 kts | 236° |
| 2026-04-29 09:52 | 45.57825 | 4.38725 | 24995 ft | 392 kts | 236° |
| 2026-04-29 09:53 | 45.56477 | 4.36019 | 25468 ft | 394 kts | 236° |
| 2026-04-29 09:53 | 45.55096 | 4.33251 | 25955 ft | 396 kts | 236° |
| 2026-04-29 09:53 | 45.53721 | 4.30498 | 26451 ft | 397 kts | 236° |
| 2026-04-29 09:53 | 45.52354 | 4.27764 | 27048 ft | 395 kts | 236° |
| 2026-04-29 09:54 | 45.50965 | 4.24990 | 27675 ft | 392 kts | 236° |
| 2026-04-29 09:54 | 45.49604 | 4.22276 | 28182 ft | 393 kts | 236° |
| 2026-04-29 09:54 | 45.48231 | 4.19537 | 28611 ft | 395 kts | 236° |
| 2026-04-29 09:54 | 45.46867 | 4.16815 | 28953 ft | 397 kts | 236° |
| 2026-04-29 09:55 | 45.44080 | 4.11268 | 29016 ft | 399 kts | 236° |
| 2026-04-29 09:55 | 45.41285 | 4.05718 | 29014 ft | 400 kts | 236° |
| 2026-04-29 09:56 | 45.38461 | 4.00118 | 29016 ft | 399 kts | 236° |
| 2026-04-29 09:56 | 45.35651 | 3.94561 | 29019 ft | 399 kts | 236° |
| 2026-04-29 09:57 | 45.32849 | 3.89027 | 29012 ft | 399 kts | 236° |
| 2026-04-29 09:57 | 45.30042 | 3.83496 | 29016 ft | 399 kts | 236° |
| 2026-04-29 09:58 | 45.27213 | 3.77936 | 29017 ft | 398 kts | 236° |
| 2026-04-29 09:58 | 45.24423 | 3.72406 | 29014 ft | 398 kts | 237° |
| 2026-04-29 09:59 | 45.21680 | 3.66817 | 29019 ft | 397 kts | 237° |
| 2026-04-29 09:59 | 45.18941 | 3.61241 | 29018 ft | 397 kts | 237° |
| 2026-04-29 10:00 | 45.16190 | 3.55663 | 29020 ft | 396 kts | 237° |
| 2026-04-29 10:00 | 45.13441 | 3.50102 | 29009 ft | 396 kts | 236° |
| 2026-04-29 10:01 | 45.10714 | 3.44601 | 29012 ft | 396 kts | 236° |
| 2026-04-29 10:01 | 45.07968 | 3.39071 | 29014 ft | 396 kts | 236° |
| 2026-04-29 10:02 | 45.05263 | 3.33636 | 29011 ft | 397 kts | 236° |
| 2026-04-29 10:02 | 45.02531 | 3.28157 | 29010 ft | 396 kts | 236° |
| 2026-04-29 10:03 | 44.99767 | 3.22622 | 29008 ft | 396 kts | 236° |
| 2026-04-29 10:03 | 44.97047 | 3.17187 | 29008 ft | 396 kts | 236° |
| 2026-04-29 10:04 | 44.94320 | 3.11748 | 29008 ft | 396 kts | 235° |
| 2026-04-29 10:04 | 44.91569 | 3.06272 | 29002 ft | 396 kts | 235° |
| 2026-04-29 10:05 | 44.88848 | 3.00866 | 29000 ft | 396 kts | 235° |
| 2026-04-29 10:05 | 44.86143 | 2.95506 | 28999 ft | 396 kts | 235° |
| 2026-04-29 10:06 | 44.83499 | 2.90015 | 29004 ft | 396 kts | 238° |
| 2026-04-29 10:06 | 44.80926 | 2.84419 | 28998 ft | 396 kts | 237° |
| 2026-04-29 10:07 | 44.78388 | 2.78907 | 28989 ft | 395 kts | 237° |
| 2026-04-29 10:07 | 44.75802 | 2.73308 | 28993 ft | 395 kts | 237° |
| 2026-04-29 10:08 | 44.73249 | 2.67787 | 28991 ft | 395 kts | 237° |
| 2026-04-29 10:08 | 44.70675 | 2.62232 | 28977 ft | 395 kts | 237° |
| 2026-04-29 10:09 | 44.68105 | 2.56699 | 28314 ft | 397 kts | 237° |
| 2026-04-29 10:09 | 44.66827 | 2.53953 | 27722 ft | 397 kts | 237° |
| 2026-04-29 10:09 | 44.65525 | 2.51155 | 27131 ft | 397 kts | 237° |
| 2026-04-29 10:10 | 44.64244 | 2.48405 | 26548 ft | 396 kts | 237° |
| 2026-04-29 10:10 | 44.62956 | 2.45645 | 26077 ft | 392 kts | 237° |
| 2026-04-29 10:10 | 44.61701 | 2.42956 | 25681 ft | 387 kts | 237° |
| 2026-04-29 10:10 | 44.60427 | 2.40229 | 25267 ft | 383 kts | 237° |
| 2026-04-29 10:11 | 44.59190 | 2.37584 | 24857 ft | 379 kts | 237° |
| 2026-04-29 10:11 | 44.57952 | 2.34942 | 24435 ft | 376 kts | 236° |
| 2026-04-29 10:11 | 44.56734 | 2.32341 | 24026 ft | 372 kts | 236° |
| 2026-04-29 10:11 | 44.55498 | 2.29707 | 23616 ft | 369 kts | 236° |
| 2026-04-29 10:12 | 44.54301 | 2.27157 | 23227 ft | 366 kts | 236° |
| 2026-04-29 10:12 | 44.53081 | 2.24561 | 22826 ft | 363 kts | 236° |
| 2026-04-29 10:12 | 44.51899 | 2.22043 | 22433 ft | 361 kts | 236° |
| 2026-04-29 10:12 | 44.50691 | 2.19477 | 22029 ft | 359 kts | 236° |
| 2026-04-29 10:13 | 44.49520 | 2.16994 | 21637 ft | 357 kts | 236° |
| 2026-04-29 10:13 | 44.48328 | 2.14466 | 21243 ft | 355 kts | 236° |
| 2026-04-29 10:13 | 44.47150 | 2.11970 | 20856 ft | 354 kts | 236° |
| 2026-04-29 10:13 | 44.45971 | 2.09473 | 20455 ft | 352 kts | 236° |
| 2026-04-29 10:14 | 44.44809 | 2.07015 | 20064 ft | 351 kts | 236° |
| 2026-04-29 10:14 | 44.43642 | 2.04550 | 19676 ft | 349 kts | 236° |
| 2026-04-29 10:14 | 44.42488 | 2.02111 | 19287 ft | 348 kts | 236° |
| 2026-04-29 10:14 | 44.41313 | 1.99632 | 18894 ft | 347 kts | 236° |
| 2026-04-29 10:15 | 44.40171 | 1.97225 | 18502 ft | 346 kts | 236° |
| 2026-04-29 10:15 | 44.39000 | 1.94759 | 18111 ft | 345 kts | 236° |
| 2026-04-29 10:15 | 44.37857 | 1.92354 | 17718 ft | 344 kts | 235° |
| 2026-04-29 10:15 | 44.36694 | 1.89908 | 17328 ft | 343 kts | 235° |
| 2026-04-29 10:16 | 44.35555 | 1.87514 | 16951 ft | 342 kts | 235° |
| 2026-04-29 10:16 | 44.34795 | 1.85919 | 16693 ft | 341 kts | 235° |
| 2026-04-29 10:16 | 44.33266 | 1.82715 | 16173 ft | 340 kts | 235° |
| 2026-04-29 10:16 | 44.32133 | 1.80342 | 15778 ft | 340 kts | 235° |
| 2026-04-29 10:17 | 44.31003 | 1.77975 | 15385 ft | 339 kts | 234° |
| 2026-04-29 10:17 | 44.29754 | 1.75794 | 14990 ft | 338 kts | 225° |
| 2026-04-29 10:17 | 44.28190 | 1.73964 | 14716 ft | 332 kts | 213° |
| 2026-04-29 10:17 | 44.26487 | 1.72574 | 14486 ft | 333 kts | 208° |
| 2026-04-29 10:18 | 44.24708 | 1.71293 | 14108 ft | 332 kts | 206° |
| 2026-04-29 10:18 | 44.22905 | 1.70027 | 13714 ft | 331 kts | 206° |
| 2026-04-29 10:18 | 44.21152 | 1.68794 | 13337 ft | 330 kts | 206° |
| 2026-04-29 10:18 | 44.19384 | 1.67539 | 12949 ft | 329 kts | 206° |
| 2026-04-29 10:19 | 44.17609 | 1.66272 | 12562 ft | 328 kts | 206° |
| 2026-04-29 10:19 | 44.15853 | 1.65013 | 12171 ft | 326 kts | 206° |
| 2026-04-29 10:19 | 44.14075 | 1.63738 | 11784 ft | 324 kts | 206° |
| 2026-04-29 10:19 | 44.12334 | 1.62489 | 11391 ft | 323 kts | 206° |
| 2026-04-29 10:20 | 44.10603 | 1.61247 | 10978 ft | 322 kts | 206° |
| 2026-04-29 10:20 | 44.08872 | 1.60004 | 10573 ft | 321 kts | 206° |
| 2026-04-29 10:20 | 44.07134 | 1.58756 | 10252 ft | 316 kts | 206° |
| 2026-04-29 10:20 | 44.05515 | 1.57472 | 10120 ft | 306 kts | 212° |
| 2026-04-29 10:21 | 44.04044 | 1.55983 | 10009 ft | 296 kts | 218° |
| 2026-04-29 10:21 | 44.02752 | 1.54414 | 9907 ft | 286 kts | 220° |
| 2026-04-29 10:21 | 44.01498 | 1.52829 | 9612 ft | 285 kts | 220° |
| 2026-04-29 10:21 | 44.00237 | 1.51225 | 9283 ft | 284 kts | 220° |
| 2026-04-29 10:22 | 43.98989 | 1.49645 | 8968 ft | 283 kts | 220° |
| 2026-04-29 10:22 | 43.97742 | 1.48074 | 8666 ft | 281 kts | 220° |
| 2026-04-29 10:22 | 43.96502 | 1.46516 | 8361 ft | 280 kts | 220° |
| 2026-04-29 10:22 | 43.95237 | 1.44999 | 8058 ft | 277 kts | 215° |
| 2026-04-29 10:23 | 43.93871 | 1.43786 | 7769 ft | 274 kts | 206° |
| 2026-04-29 10:23 | 43.92387 | 1.42875 | 7476 ft | 271 kts | 200° |
| 2026-04-29 10:23 | 43.90893 | 1.42088 | 7192 ft | 269 kts | 199° |
| 2026-04-29 10:23 | 43.89409 | 1.41310 | 6898 ft | 268 kts | 202° |
| 2026-04-29 10:24 | 43.88075 | 1.40071 | 6546 ft | 272 kts | 225° |
| 2026-04-29 10:24 | 43.87202 | 1.38146 | 6214 ft | 276 kts | 249° |
| 2026-04-29 10:24 | 43.86909 | 1.35902 | 5948 ft | 277 kts | 268° |
| 2026-04-29 10:24 | 43.87095 | 1.33650 | 5667 ft | 277 kts | 279° |
| 2026-04-29 10:25 | 43.87410 | 1.31412 | 5365 ft | 276 kts | 277° |
| 2026-04-29 10:25 | 43.87598 | 1.29143 | 5070 ft | 275 kts | 271° |
| 2026-04-29 10:25 | 43.87596 | 1.26885 | 4780 ft | 273 kts | 263° |
| 2026-04-29 10:25 | 43.87407 | 1.24680 | 4638 ft | 264 kts | 257° |
| 2026-04-29 10:26 | 43.87064 | 1.22573 | 4572 ft | 253 kts | 251° |
| 2026-04-29 10:26 | 43.86609 | 1.20631 | 4508 ft | 243 kts | 246° |
| 2026-04-29 10:26 | 43.86002 | 1.18809 | 4345 ft | 235 kts | 231° |
| 2026-04-29 10:26 | 43.85063 | 1.17461 | 4095 ft | 229 kts | 209° |
| 2026-04-29 10:27 | 43.82556 | 1.16603 | 3633 ft | 214 kts | 166° |
| 2026-04-29 10:27 | 43.81380 | 1.17127 | 3417 ft | 209 kts | 151° |
| 2026-04-29 10:27 | 43.80320 | 1.17977 | 3198 ft | 206 kts | 142° |
| 2026-04-29 10:28 | 43.79343 | 1.18976 | 3008 ft | 207 kts | 140° |
| 2026-04-29 10:28 | 43.78377 | 1.20025 | 2954 ft | 200 kts | 139° |
| 2026-04-29 10:28 | 43.77489 | 1.20980 | 2932 ft | 179 kts | 139° |
| 2026-04-29 10:28 | 43.76675 | 1.21843 | 2931 ft | 171 kts | 140° |
| 2026-04-29 10:29 | 43.75863 | 1.22696 | 2945 ft | 171 kts | 140° |
| 2026-04-29 10:29 | 43.75058 | 1.23536 | 2944 ft | 171 kts | 140° |
| 2026-04-29 10:29 | 43.74252 | 1.24373 | 2827 ft | 170 kts | 140° |
| 2026-04-29 10:29 | 43.73446 | 1.25209 | 2638 ft | 170 kts | 140° |
| 2026-04-29 10:30 | 43.72638 | 1.26046 | 2451 ft | 169 kts | 140° |
| 2026-04-29 10:30 | 43.71860 | 1.26851 | 2335 ft | 158 kts | 140° |
| 2026-04-29 10:30 | 43.71131 | 1.27606 | 2133 ft | 150 kts | 140° |
| 2026-04-29 10:30 | 43.70434 | 1.28329 | 1942 ft | 141 kts | 140° |
| 2026-04-29 10:31 | 43.69777 | 1.29011 | 1784 ft | 131 kts | 139° |
| 2026-04-29 10:31 | 43.69170 | 1.29641 | 1637 ft | 123 kts | 140° |
| 2026-04-29 10:31 | 43.68605 | 1.30228 | 1489 ft | 118 kts | 139° |
| 2026-04-29 10:31 | 43.68057 | 1.30795 | 1368 ft | 117 kts | 140° |
| 2026-04-29 10:32 | 43.67516 | 1.31357 | 1256 ft | 116 kts | 139° |
| 2026-04-29 10:32 | 43.66990 | 1.31909 | 1120 ft | 116 kts | 139° |
| 2026-04-29 10:32 | 43.66452 | 1.32465 | 999 ft | 115 kts | 140° |
| 2026-04-29 10:32 | 43.65921 | 1.33015 | 892 ft | 115 kts | 139° |
| 2026-04-29 10:33 | 43.65393 | 1.33564 | 767 ft | 115 kts | 140° |
| 2026-04-29 10:33 | 43.64874 | 1.34118 | 670 ft | 115 kts | 139° |
| 2026-04-29 10:33 | 43.64352 | 1.34668 | 540 ft | 114 kts | 140° |
| 2026-04-29 10:33 | 43.63831 | 1.35200 | 495 ft | 105 kts | 141° |
| 2026-04-29 10:34 | 43.63444 | 1.35610 | 499 ft | 63 kts | 142° |
| 2026-04-29 10:34 | 43.63209 | 1.35861 | 504 ft | 44 kts | 143° |
| 2026-04-29 10:34 | 43.63019 | 1.36078 | 504 ft | 38 kts | 131° |
| 2026-04-29 10:34 | 43.62842 | 1.36247 | 503 ft | 35 kts | 153° |
| 2026-04-29 10:35 | 43.62672 | 1.36407 | 497 ft | 36 kts | 142° |
| 2026-04-29 10:35 | 43.62506 | 1.36585 | 495 ft | 34 kts | 142° |
| 2026-04-29 10:35 | 43.62459 | 1.36825 | 495 ft | 31 kts | 83° |
| 2026-04-29 10:35 | 43.62480 | 1.37071 | 495 ft | 30 kts | 83° |
| 2026-04-29 10:36 | 43.62548 | 1.37266 | 495 ft | 24 kts | 4° |
| 2026-04-29 10:36 | 43.62670 | 1.37182 | 495 ft | 23 kts | 323° |
| 2026-04-29 10:36 | 43.62783 | 1.37069 | 495 ft | 22 kts | 341° |
| 2026-04-29 10:36 | 43.62885 | 1.37155 | 496 ft | 20 kts | 57° |
| 2026-04-29 10:37 | 43.62870 | 1.37288 | 498 ft | 14 kts | 116° |
| 2026-04-29 10:37 | 43.62902 | 1.37376 | 499 ft | 7 kts | 47° |
| 2026-04-29 10:37 | 43.62912 | 1.37389 | 499 ft | 0 kts | 47° |